Ringle, Wisconsin
Current Conditions -  °F | °C
As of 9:54 AM on Friday 31 Oct 2014 (Local Time) from KAUW Reporting Station
Broken Clouds Broken Clouds  
Wind Chill: 22°   Ceiling: 3600
Heat Index: 30°   Visibility: 10mi
Dew Point: 20°   Wind: 9mph
Humidity: 66%   Direction: 10°N
Pressure: 30.35"   Gusts: 21mph
Location:  44.89°N, 89.43°W
Report Text: KAUW 311454Z AUTO 01008G18KT 330V040 10SM BKN036 BKN042 M01/M07 A3035 RMK AO2 SLP296 T10111067 53023
Loading
Personal Weather Stations






























Interactive Weather Map
Tropical Storm Tracking
New forecast layout! Learn more

10-Day Weather Forecast

Advertisements
Track Severe Weather on mobile